Time;durP1;ratioP1;P1;durP2;ratioP2;P2;SDS_P1;SDS_P2;PMS_P1;PMS_P2;Temp;Humidity;BMP_temperature;BMP_pressure;BME280_temperature;BME280_humidity;BME280_pressure;Samples;Min_cycle;Max_cycle;Signal;HPM_P1;HPM_P2
2023/09/03 00:00:22;;;;;;;6.95;5.13;;;13.50;99.90;;;;;;5082845;28;20497;-67
2023/09/03 00:02:48;;;;;;;9.05;5.18;;;13.40;99.90;;;;;;5089444;28;20040;-66
2023/09/03 00:05:14;;;;;;;9.73;5.80;;;13.40;99.90;;;;;;5092088;28;20036;-67
2023/09/03 00:07:40;;;;;;;11.40;6.40;;;13.40;99.90;;;;;;5089403;28;20082;-67
2023/09/03 00:10:06;;;;;;;9.90;6.00;;;13.40;99.90;;;;;;5084148;28;20145;-67
2023/09/03 00:12:32;;;;;;;10.57;6.25;;;13.40;99.90;;;;;;5089877;28;20042;-67
2023/09/03 00:14:57;;;;;;;9.02;6.25;;;13.50;99.90;;;;;;5091806;28;20040;-66
2023/09/03 00:17:23;;;;;;;146.93;9.07;;;13.40;99.90;;;;;;5072131;28;20098;-67
2023/09/03 00:19:49;;;;;;;23.58;5.20;;;13.40;99.90;;;;;;5086779;28;20107;-66
2023/09/03 00:22:14;;;;;;;10.70;7.50;;;13.40;99.90;;;;;;5091651;28;20079;-67
2023/09/03 00:24:40;;;;;;;12.43;8.70;;;13.30;99.90;;;;;;5088048;28;20051;-67
2023/09/03 00:27:05;;;;;;;11.43;7.97;;;13.30;99.90;;;;;;5090419;28;20043;-66
2023/09/03 00:29:32;;;;;;;12.88;8.88;;;13.40;99.90;;;;;;5091414;28;20119;-65
2023/09/03 00:31:57;;;;;;;12.23;8.57;;;13.40;99.90;;;;;;5088150;28;20048;-67
2023/09/03 00:34:23;;;;;;;11.88;8.50;;;13.50;99.90;;;;;;5085542;28;20039;-65
2023/09/03 00:36:48;;;;;;;14.00;9.57;;;13.40;99.90;;;;;;5091369;28;20124;-67
2023/09/03 00:39:14;;;;;;;16.55;10.27;;;13.50;99.90;;;;;;5091231;28;20032;-67
2023/09/03 00:41:40;;;;;;;13.23;9.55;;;13.50;99.90;;;;;;5089073;28;20071;-66
2023/09/03 00:44:05;;;;;;;19.00;10.85;;;13.50;99.90;;;;;;5077566;28;20469;-65
2023/09/03 00:46:31;;;;;;;17.58;9.98;;;13.50;99.90;;;;;;5088971;28;20070;-66
2023/09/03 00:48:58;;;;;;;14.23;10.13;;;13.50;99.90;;;;;;5089721;28;20071;-63
2023/09/03 00:51:24;;;;;;;15.18;8.45;;;13.50;99.90;;;;;;5077555;28;20061;-65
2023/09/03 00:53:54;;;;;;;10.20;7.03;;;13.40;99.90;;;;;;5091243;28;20036;-66
2023/09/03 00:56:20;;;;;;;8.73;6.80;;;13.30;99.90;;;;;;5091495;28;20051;-67
2023/09/03 00:58:47;;;;;;;10.82;7.90;;;13.20;99.90;;;;;;5083759;28;20032;-66
2023/09/03 01:01:13;;;;;;;10.90;7.82;;;13.10;99.90;;;;;;5088627;28;20040;-67
2023/09/03 01:03:39;;;;;;;14.15;9.57;;;13.10;99.90;;;;;;5091390;28;20517;-67
2023/09/03 01:06:06;;;;;;;12.32;7.05;;;13.10;99.90;;;;;;5079881;28;20047;-67
2023/09/03 01:08:32;;;;;;;11.13;7.00;;;13.00;99.90;;;;;;5087283;28;20111;-67
2023/09/03 01:11:26;;;;;;;18.50;8.32;;;12.90;99.90;;;;;;5090847;28;20169;-67
2023/09/03 01:14:29;;;;;;;12.25;8.80;;;12.80;99.90;;;;;;5084145;28;20409;-67
2023/09/03 01:17:10;;;;;;;15.77;9.15;;;12.90;99.90;;;;;;5076280;28;20028;-66
2023/09/03 01:20:13;;;;;;;16.35;9.63;;;12.90;99.90;;;;;;5089399;28;20044;-67
2023/09/03 01:22:55;;;;;;;17.55;10.70;;;13.00;99.90;;;;;;5087140;28;20553;-66
2023/09/03 01:25:54;;;;;;;17.92;11.07;;;13.00;99.90;;;;;;5077309;28;20086;-66
2023/09/03 01:28:21;;;;;;;16.88;11.65;;;13.10;99.90;;;;;;5090690;28;20036;-67
2023/09/03 01:30:48;;;;;;;19.38;11.68;;;13.10;99.90;;;;;;5091325;28;20036;-66
2023/09/03 01:33:16;;;;;;;19.10;11.68;;;13.10;99.90;;;;;;5077953;28;20483;-66
2023/09/03 01:35:43;;;;;;;20.77;13.57;;;13.10;99.90;;;;;;5083724;28;20040;-66
2023/09/03 01:38:09;;;;;;;22.85;13.02;;;13.20;99.90;;;;;;5094155;28;20127;-66
2023/09/03 01:40:35;;;;;;;17.70;10.57;;;13.20;99.90;;;;;;5084146;28;20040;-66
2023/09/03 01:43:01;;;;;;;11.70;8.85;;;13.10;99.90;;;;;;5094677;28;20047;-66
2023/09/03 01:45:35;;;;;;;16.02;8.65;;;13.00;99.90;;;;;;5094636;28;20040;-67
2023/09/03 01:48:36;;;;;;;13.52;8.13;;;12.80;99.90;;;;;;5094830;28;20039;-67
2023/09/03 01:51:29;;;;;;;12.30;7.70;;;12.60;99.90;;;;;;5079226;28;20113;-67
2023/09/03 01:54:16;;;;;;;12.50;7.40;;;12.50;99.90;;;;;;5087737;28;20036;-67
2023/09/03 01:57:17;;;;;;;11.80;8.25;;;12.40;99.90;;;;;;5091121;28;20028;-66
2023/09/03 01:59:47;;;;;;;12.73;8.18;;;12.40;99.90;;;;;;5078586;28;20514;-67
2023/09/03 02:02:14;;;;;;;9.57;6.55;;;12.40;99.90;;;;;;5094323;28;20093;-67
2023/09/03 02:04:39;;;;;;;12.27;8.52;;;12.40;99.90;;;;;;5089727;28;20144;-66
2023/09/03 02:07:05;;;;;;;12.88;9.10;;;12.50;99.90;;;;;;5087833;28;20634;-67
2023/09/03 02:09:31;;;;;;;15.55;10.48;;;12.50;99.90;;;;;;5093682;28;20051;-67
2023/09/03 02:11:57;;;;;;;110.32;12.77;;;12.60;99.90;;;;;;5093970;28;20032;-66
2023/09/03 02:14:23;;;;;;;29.90;10.40;;;12.50;99.90;;;;;;5084713;28;20035;-67
2023/09/03 02:16:50;;;;;;;33.97;9.57;;;12.50;99.90;;;;;;5088261;28;20036;-67
2023/09/03 02:19:16;;;;;;;13.65;8.93;;;12.50;99.90;;;;;;5093860;28;20040;-66
2023/09/03 02:21:42;;;;;;;21.90;10.70;;;12.50;99.90;;;;;;5087971;28;20038;-67
2023/09/03 02:24:07;;;;;;;22.80;11.73;;;12.40;99.90;;;;;;5086838;28;20042;-67
2023/09/03 02:26:40;;;;;;;12.48;8.05;;;12.40;99.90;;;;;;5093675;28;20462;-67
2023/09/03 02:29:06;;;;;;;15.35;9.40;;;12.40;99.90;;;;;;5090346;28;20038;-66
2023/09/03 02:31:31;;;;;;;19.48;8.70;;;12.40;99.90;;;;;;5081842;28;20036;-66
2023/09/03 02:33:57;;;;;;;15.32;8.68;;;12.30;99.90;;;;;;5093633;28;20039;-66
2023/09/03 02:36:23;;;;;;;13.20;8.30;;;12.20;99.90;;;;;;5094075;28;20044;-67
2023/09/03 02:38:59;;;;;;;20.77;9.45;;;12.20;99.90;;;;;;5077010;28;20074;-67
2023/09/03 02:41:24;;;;;;;31.38;8.45;;;12.20;99.90;;;;;;5090436;28;20055;-66
2023/09/03 02:43:50;;;;;;;29.27;10.18;;;12.20;99.90;;;;;;5094048;28;20513;-67
2023/09/03 02:46:15;;;;;;;11.95;8.18;;;12.20;99.90;;;;;;5082475;28;20418;-66
2023/09/03 02:48:41;;;;;;;14.90;8.90;;;12.20;99.90;;;;;;5088879;28;20060;-66
2023/09/03 02:51:07;;;;;;;15.32;9.00;;;12.20;99.90;;;;;;5093033;28;20059;-67
2023/09/03 02:53:32;;;;;;;17.58;9.05;;;12.20;99.90;;;;;;5093520;28;20066;-66
2023/09/03 02:55:58;;;;;;;16.08;10.25;;;12.20;99.90;;;;;;5082559;28;20058;-66
2023/09/03 02:58:24;;;;;;;17.60;10.95;;;12.30;99.90;;;;;;5086785;28;20039;-67
2023/09/03 03:00:50;;;;;;;12.88;9.43;;;12.30;99.90;;;;;;5093197;28;20044;-66
2023/09/03 03:03:16;;;;;;;13.25;9.73;;;12.30;99.90;;;;;;5090204;28;20498;-66
2023/09/03 03:05:41;;;;;;;16.98;10.00;;;12.30;99.90;;;;;;5083846;28;20144;-67
2023/09/03 03:08:08;;;;;;;17.85;9.93;;;12.30;99.90;;;;;;5089262;28;20032;-64
2023/09/03 03:10:34;;;;;;;16.10;10.65;;;12.30;99.90;;;;;;5090812;28;20044;-64
2023/09/03 03:12:59;;;;;;;18.92;10.70;;;12.30;99.90;;;;;;5086533;28;20089;-64
2023/09/03 03:15:25;;;;;;;14.07;8.98;;;12.30;99.90;;;;;;5084192;28;20100;-64
2023/09/03 03:17:51;;;;;;;16.48;9.05;;;12.20;99.90;;;;;;5092356;28;20567;-65
2023/09/03 03:20:16;;;;;;;17.55;8.68;;;12.10;99.90;;;;;;5082261;28;20103;-65
2023/09/03 03:22:42;;;;;;;10.88;7.63;;;12.00;99.90;;;;;;5089291;28;20071;-64
2023/09/03 03:25:08;;;;;;;11.02;7.35;;;11.90;99.90;;;;;;5088257;28;20032;-64
2023/09/03 03:27:34;;;;;;;12.07;8.45;;;11.90;99.90;;;;;;5091965;28;20383;-64
2023/09/03 03:30:00;;;;;;;17.35;11.32;;;11.90;99.90;;;;;;5080742;28;20087;-65
2023/09/03 03:32:26;;;;;;;14.07;8.82;;;11.90;99.90;;;;;;5083494;28;20427;-65
2023/09/03 03:34:51;;;;;;;16.85;9.50;;;11.90;99.90;;;;;;5083754;28;20031;-64
2023/09/03 03:37:17;;;;;;;401.90;18.38;;;11.80;99.90;;;;;;5082204;28;20039;-65
2023/09/03 03:39:43;;;;;;;92.32;11.15;;;11.70;99.90;;;;;;5085355;28;20134;-64
2023/09/03 03:47:19;;;;;;;43.45;9.77;;;11.70;99.90;;;;;;5857557;22;20049;-72
2023/09/03 03:49:45;;;;;;;14.35;9.82;;;11.60;99.90;;;;;;5005746;28;20040;-72
2023/09/03 03:52:10;;;;;;;42.05;11.10;;;11.60;99.90;;;;;;5032191;28;20040;-72
2023/09/03 03:54:36;;;;;;;22.23;9.45;;;11.50;99.90;;;;;;5023056;28;20060;-72
2023/09/03 03:57:02;;;;;;;189.82;14.75;;;11.50;99.90;;;;;;5045906;28;20097;-72
2023/09/03 03:59:27;;;;;;;147.95;10.65;;;11.50;99.90;;;;;;5043832;28;20071;-72
2023/09/03 04:01:53;;;;;;;70.68;10.35;;;11.40;99.90;;;;;;5048579;28;20158;-71
2023/09/03 04:14:40;;;;;;;77.57;12.57;;;11.20;99.90;;;;;;5562085;23;20069;-66
2023/09/03 04:17:06;;;;;;;50.55;7.90;;;11.30;99.90;;;;;;5008740;28;20492;-66
2023/09/03 04:19:32;;;;;;;32.08;7.78;;;11.30;99.90;;;;;;5002693;28;20034;-65
2023/09/03 04:21:59;;;;;;;66.35;8.38;;;11.30;99.90;;;;;;5011601;28;20040;-66
2023/09/03 04:24:25;;;;;;;45.00;9.00;;;11.30;99.90;;;;;;5010604;28;20088;-66
2023/09/03 04:26:50;;;;;;;84.53;8.23;;;11.40;99.90;;;;;;4993799;28;20030;-64
2023/09/03 04:29:16;;;;;;;105.97;9.05;;;11.30;99.90;;;;;;4998805;28;20034;-64
2023/09/03 04:31:41;;;;;;;92.43;8.95;;;11.30;99.90;;;;;;4986476;28;20504;-66
2023/09/03 04:34:07;;;;;;;41.30;9.65;;;11.30;99.90;;;;;;5011455;28;20042;-67
2023/09/03 04:36:34;;;;;;;17.95;10.32;;;11.30;99.90;;;;;;5000183;28;20038;-66
2023/09/03 04:38:59;;;;;;;13.40;7.30;;;11.30;99.90;;;;;;5002786;28;20034;-66
2023/09/03 04:41:25;;;;;;;12.60;7.00;;;11.30;99.90;;;;;;5011428;28;20056;-64
2023/09/03 04:44:06;;;;;;;16.58;6.47;;;11.20;99.90;;;;;;5006302;28;20100;-64
2023/09/03 04:46:31;;;;;;;17.90;7.37;;;11.10;99.90;;;;;;4998266;28;20096;-65
2023/09/03 04:48:57;;;;;;;26.98;8.50;;;11.10;99.90;;;;;;5011349;28;20049;-64
2023/09/03 04:51:22;;;;;;;19.13;7.57;;;11.10;99.90;;;;;;4994067;28;20047;-64
2023/09/03 04:53:48;;;;;;;24.77;9.20;;;11.00;99.90;;;;;;5000619;28;20030;-64
2023/09/03 04:56:14;;;;;;;30.63;9.43;;;11.10;99.90;;;;;;5008990;28;20041;-65
2023/09/03 04:58:39;;;;;;;48.13;10.20;;;11.10;99.90;;;;;;5010599;28;20412;-65
2023/09/03 05:01:15;;;;;;;78.95;11.02;;;11.10;99.90;;;;;;5000970;28;20033;-64
2023/09/03 05:03:41;;;;;;;51.55;9.80;;;11.20;99.90;;;;;;5003882;28;20077;-64
2023/09/03 05:06:11;;;;;;;44.70;9.52;;;11.30;99.90;;;;;;5005036;28;20093;-64
2023/09/03 05:08:37;;;;;;;15.02;8.20;;;11.30;99.90;;;;;;5004231;28;20039;-64
2023/09/03 05:11:12;;;;;;;10.02;6.90;;;11.30;99.90;;;;;;5009634;28;20043;-66
2023/09/03 05:13:38;;;;;;;16.15;6.97;;;11.40;99.90;;;;;;5013983;28;20044;-67
2023/09/03 05:16:04;;;;;;;17.30;6.95;;;11.40;99.90;;;;;;5015298;28;20032;-67
2023/09/03 05:18:30;;;;;;;13.73;7.18;;;11.30;99.90;;;;;;5004326;28;20042;-67
2023/09/03 05:20:56;;;;;;;12.38;6.70;;;11.30;99.90;;;;;;5005709;28;20488;-66
2023/09/03 05:23:22;;;;;;;10.75;7.30;;;11.40;99.90;;;;;;5015028;28;20038;-67
2023/09/03 05:25:47;;;;;;;15.68;8.48;;;11.40;99.90;;;;;;5015296;28;20283;-67
2023/09/03 05:28:13;;;;;;;15.50;8.35;;;11.40;99.90;;;;;;4998853;28;20042;-66
2023/09/03 05:30:39;;;;;;;14.20;8.30;;;11.40;99.90;;;;;;5014973;28;20469;-67
2023/09/03 05:33:04;;;;;;;16.77;9.23;;;11.50;99.90;;;;;;5011242;28;20556;-66
2023/09/03 05:35:30;;;;;;;13.05;8.30;;;11.50;99.90;;;;;;5012337;28;20034;-67
2023/09/03 05:37:55;;;;;;;17.55;9.93;;;11.60;99.90;;;;;;5014638;28;20049;-66
2023/09/03 05:40:21;;;;;;;13.30;8.50;;;11.70;99.90;;;;;;5010319;28;21600;-68
2023/09/03 05:42:50;;;;;;;17.27;9.82;;;11.60;99.90;;;;;;4979962;28;20104;-66
2023/09/03 05:45:15;;;;;;;15.93;8.40;;;11.60;99.90;;;;;;5012717;28;20500;-66
2023/09/03 05:47:41;;;;;;;15.20;9.77;;;11.70;99.90;;;;;;5013568;28;20042;-66
2023/09/03 05:50:07;;;;;;;15.27;9.18;;;11.70;99.90;;;;;;5007476;28;20429;-66
2023/09/03 05:52:32;;;;;;;11.77;8.10;;;11.70;99.90;;;;;;5010848;28;20030;-67
2023/09/03 05:54:58;;;;;;;15.98;9.55;;;11.80;99.90;;;;;;5013273;28;20038;-66
2023/09/03 05:57:23;;;;;;;15.30;9.73;;;11.80;99.90;;;;;;4995932;28;20038;-65
2023/09/03 05:59:50;;;;;;;15.57;9.98;;;11.90;99.90;;;;;;4999950;28;20077;-64
2023/09/03 06:02:16;;;;;;;14.65;9.95;;;11.90;99.90;;;;;;5010539;28;20041;-65
2023/09/03 06:04:42;;;;;;;14.95;10.00;;;12.00;99.90;;;;;;4992496;28;20042;-65
2023/09/03 06:07:09;;;;;;;15.77;10.48;;;12.10;99.90;;;;;;5009677;28;20036;-65
2023/09/03 06:09:35;;;;;;;16.10;10.88;;;12.20;99.90;;;;;;5009248;28;20089;-64
2023/09/03 06:12:01;;;;;;;16.65;10.57;;;12.30;99.90;;;;;;5013170;28;20463;-64
2023/09/03 06:14:27;;;;;;;16.55;10.70;;;12.40;99.90;;;;;;5013276;28;20081;-65
2023/09/03 06:16:54;;;;;;;18.05;11.20;;;12.50;99.90;;;;;;5006756;28;20113;-64
2023/09/03 06:19:21;;;;;;;21.85;11.95;;;12.60;99.90;;;;;;5012385;28;20113;-64
2023/09/03 06:21:48;;;;;;;16.20;10.48;;;12.70;99.90;;;;;;4993260;28;20591;-64
2023/09/03 06:24:15;;;;;;;16.00;11.15;;;12.80;99.90;;;;;;5006722;28;20057;-64
2023/09/03 06:26:41;;;;;;;17.13;11.45;;;13.00;99.90;;;;;;5009849;28;20065;-65
2023/09/03 06:29:06;;;;;;;16.92;11.27;;;13.10;99.90;;;;;;5012846;28;20045;-65
2023/09/03 06:31:32;;;;;;;17.73;10.90;;;13.20;99.90;;;;;;5012764;28;20046;-66
2023/09/03 06:33:57;;;;;;;14.05;10.30;;;13.30;99.90;;;;;;5007528;28;20034;-64
2023/09/03 06:36:24;;;;;;;15.75;10.70;;;13.50;99.90;;;;;;5012086;28;20038;-66
2023/09/03 06:38:50;;;;;;;15.70;10.55;;;13.60;99.90;;;;;;5012775;28;20077;-67
2023/09/03 06:41:15;;;;;;;16.27;11.55;;;13.60;99.90;;;;;;4987580;28;20073;-66
2023/09/03 06:43:41;;;;;;;17.63;11.95;;;13.70;99.90;;;;;;5011887;28;20120;-66
2023/09/03 06:46:07;;;;;;;15.43;10.95;;;13.70;99.90;;;;;;5012543;28;20500;-67
2023/09/03 06:48:32;;;;;;;14.30;10.23;;;13.70;99.90;;;;;;5007095;28;20065;-67
2023/09/03 06:50:58;;;;;;;17.30;11.32;;;13.80;99.90;;;;;;5012233;28;20563;-66
2023/09/03 06:53:24;;;;;;;14.60;10.48;;;13.80;99.90;;;;;;5013307;28;20042;-67
2023/09/03 06:55:49;;;;;;;15.77;11.50;;;13.90;99.90;;;;;;5013725;28;20038;-67
2023/09/03 06:58:15;;;;;;;17.83;11.95;;;14.00;99.90;;;;;;4993063;28;20034;-66
2023/09/03 07:00:42;;;;;;;18.70;12.63;;;14.00;99.90;;;;;;5005323;28;20034;-67
2023/09/03 07:03:07;;;;;;;18.90;12.85;;;14.10;99.90;;;;;;5012427;28;20045;-65
2023/09/03 07:05:33;;;;;;;20.70;13.80;;;14.10;99.90;;;;;;5004180;28;20408;-64
2023/09/03 07:07:59;;;;;;;25.63;13.65;;;14.20;99.90;;;;;;4990012;28;20408;-66
2023/09/03 07:10:24;;;;;;;20.17;13.77;;;14.30;99.90;;;;;;5011887;28;20095;-66
2023/09/03 07:12:50;;;;;;;19.48;13.10;;;14.40;99.90;;;;;;4980118;28;20041;-67
2023/09/03 07:15:15;;;;;;;21.17;13.65;;;14.50;99.90;;;;;;5006621;28;20034;-67
2023/09/03 07:17:41;;;;;;;21.15;13.02;;;14.60;99.90;;;;;;5011854;28;20037;-67
2023/09/03 07:20:07;;;;;;;19.83;13.07;;;14.70;99.90;;;;;;5012986;28;20432;-67
2023/09/03 07:22:34;;;;;;;20.05;13.05;;;14.80;99.90;;;;;;5001980;28;20504;-68
2023/09/03 07:24:59;;;;;;;19.00;12.73;;;14.90;99.90;;;;;;5009616;28;20037;-67
2023/09/03 07:27:25;;;;;;;19.83;13.35;;;15.00;99.90;;;;;;5012447;28;20038;-67
2023/09/03 07:29:52;;;;;;;20.83;12.52;;;15.00;99.90;;;;;;5010088;28;20488;-68
2023/09/03 07:32:20;;;;;;;18.40;13.57;;;15.10;99.90;;;;;;5009302;28;20484;-68
2023/09/03 07:34:46;;;;;;;20.42;13.75;;;15.20;99.90;;;;;;5011000;28;20034;-68
2023/09/03 07:37:11;;;;;;;19.80;13.25;;;15.30;99.90;;;;;;5012117;28;20034;-65
2023/09/03 07:39:37;;;;;;;18.70;13.57;;;15.30;99.90;;;;;;4995987;28;20121;-65
2023/09/03 07:42:02;;;;;;;20.20;13.75;;;15.40;99.90;;;;;;5009548;28;20439;-68
2023/09/03 07:44:28;;;;;;;22.20;13.90;;;15.50;99.90;;;;;;5012437;28;20045;-64
2023/09/03 07:46:53;;;;;;;20.63;14.75;;;15.60;99.90;;;;;;5007535;28;20063;-65
2023/09/03 07:49:19;;;;;;;21.73;15.45;;;15.70;99.90;;;;;;5009085;28;20037;-66
2023/09/03 07:51:45;;;;;;;25.42;15.95;;;15.80;99.90;;;;;;4996053;28;20100;-68
2023/09/03 07:54:10;;;;;;;23.10;15.23;;;16.00;99.90;;;;;;5012256;28;20096;-65
2023/09/03 07:56:36;;;;;;;21.90;14.75;;;16.10;99.90;;;;;;5006840;28;20133;-69
2023/09/03 07:59:02;;;;;;;21.42;14.15;;;16.20;99.90;;;;;;5005795;28;20512;-67
2023/09/03 08:01:28;;;;;;;20.58;13.48;;;16.30;99.90;;;;;;4997056;28;20045;-68
2023/09/03 08:03:53;;;;;;;16.80;12.63;;;16.40;99.90;;;;;;5003197;28;20037;-67
2023/09/03 08:06:19;;;;;;;18.20;12.88;;;16.50;99.90;;;;;;5010043;28;20034;-66
2023/09/03 08:08:44;;;;;;;16.35;12.57;;;16.60;99.90;;;;;;5011451;28;20046;-68
2023/09/03 08:11:10;;;;;;;16.35;12.30;;;16.70;99.90;;;;;;5012229;28;20034;-63
2023/09/03 08:13:36;;;;;;;16.13;12.07;;;16.80;99.90;;;;;;5005954;28;20061;-64
2023/09/03 08:16:01;;;;;;;16.85;11.30;;;16.90;99.90;;;;;;4998451;28;20519;-66
2023/09/03 08:18:27;;;;;;;16.75;12.10;;;17.00;99.90;;;;;;5011248;28;20117;-64
2023/09/03 08:20:52;;;;;;;17.50;10.70;;;17.10;99.90;;;;;;4982340;28;20073;-66
2023/09/03 08:23:18;;;;;;;14.48;9.70;;;17.20;99.90;;;;;;5008616;28;20061;-66
2023/09/03 08:25:44;;;;;;;13.95;9.88;;;17.20;99.90;;;;;;5011543;28;20045;-65
2023/09/03 08:28:11;;;;;;;10.90;9.27;;;17.30;99.90;;;;;;5011421;28;20034;-65
2023/09/03 08:30:37;;;;;;;14.05;10.30;;;17.30;99.90;;;;;;5003258;28;20056;-66
2023/09/03 08:33:03;;;;;;;14.18;9.55;;;17.30;99.90;;;;;;5010358;28;20416;-65
2023/09/03 08:35:30;;;;;;;10.93;7.55;;;17.50;99.90;;;;;;5011269;28;20492;-66
2023/09/03 08:37:55;;;;;;;12.30;8.50;;;17.60;99.90;;;;;;5002333;28;20081;-66
2023/09/03 08:40:22;;;;;;;12.75;9.70;;;17.70;99.90;;;;;;5009549;28;20073;-66
2023/09/03 08:42:48;;;;;;;13.13;8.82;;;17.70;99.90;;;;;;5011384;28;20136;-66
2023/09/03 08:45:17;;;;;;;11.63;8.98;;;17.80;99.90;;;;;;5011167;28;20033;-64
2023/09/03 08:47:44;;;;;;;11.55;8.98;;;17.80;99.90;;;;;;5002353;28;20042;-66
2023/09/03 08:50:11;;;;;;;12.50;8.30;;;17.90;99.90;;;;;;5010575;28;20507;-66
2023/09/03 08:52:41;;;;;;;14.68;9.77;;;17.90;99.90;;;;;;4994435;28;20045;-64
2023/09/03 08:55:08;;;;;;;17.60;10.32;;;18.00;99.90;;;;;;5002324;28;20731;-66
2023/09/03 08:57:34;;;;;;;13.30;8.73;;;18.10;99.90;;;;;;5008999;28;20030;-66
2023/09/03 09:00:05;;;;;;;14.02;8.98;;;18.20;99.90;;;;;;5011185;28;20554;-65
2023/09/03 09:02:32;;;;;;;14.23;10.18;;;18.30;99.90;;;;;;5006850;28;20096;-67
2023/09/03 09:05:00;;;;;;;12.98;9.38;;;18.30;99.90;;;;;;5010458;28;20451;-66
2023/09/03 09:07:26;;;;;;;16.42;10.15;;;18.40;99.90;;;;;;5010454;28;20046;-66
2023/09/03 09:09:54;;;;;;;13.77;9.05;;;18.40;99.90;;;;;;4970829;28;20049;-66
2023/09/03 09:12:41;;;;;;;10.88;8.32;;;18.50;99.90;;;;;;4994732;28;20105;-64
2023/09/03 09:15:07;;;;;;;10.88;7.57;;;18.50;99.90;;;;;;5010959;28;20042;-64
2023/09/03 09:17:41;;;;;;;11.18;7.53;;;18.50;99.90;;;;;;5008602;28;20066;-64
2023/09/03 09:20:08;;;;;;;10.88;6.82;;;18.50;99.90;;;;;;5003477;28;20121;-64
2023/09/03 09:22:45;;;;;;;10.00;6.10;;;18.60;99.90;;;;;;5011032;28;20049;-63
2023/09/03 09:25:17;;;;;;;11.20;8.30;;;18.70;99.90;;;;;;5010581;28;20041;-68
2023/09/03 09:27:43;;;;;;;9.95;7.55;;;18.90;99.90;;;;;;4997960;28;20559;-64
2023/09/03 09:30:13;;;;;;;10.38;6.63;;;18.90;99.90;;;;;;4999092;28;20045;-65
2023/09/03 09:32:40;;;;;;;12.98;7.03;;;19.10;99.90;;;;;;5011116;28;20515;-64
2023/09/03 09:35:07;;;;;;;10.85;7.90;;;19.20;99.90;;;;;;5011208;28;20045;-67
2023/09/03 09:37:40;;;;;;;9.65;7.80;;;19.20;99.90;;;;;;4987753;28;20048;-68
2023/09/03 09:40:09;;;;;;;10.07;7.72;;;19.20;99.90;;;;;;4993610;28;20049;-65
2023/09/03 09:42:51;;;;;;;10.90;7.80;;;19.20;99.90;;;;;;5010685;28;20053;-67
2023/09/03 09:45:17;;;;;;;10.10;6.28;;;19.40;99.90;;;;;;5001886;28;20034;-66
2023/09/03 09:47:42;;;;;;;12.68;7.93;;;19.40;99.90;;;;;;5000325;28;20488;-68
2023/09/03 09:50:08;;;;;;;10.25;7.95;;;19.40;99.90;;;;;;5001158;28;20049;-67
2023/09/03 09:52:35;;;;;;;10.25;8.02;;;19.50;99.90;;;;;;5007315;28;20073;-68
2023/09/03 09:55:02;;;;;;;8.20;6.70;;;19.50;99.90;;;;;;5000286;28;20116;-68
2023/09/03 09:57:27;;;;;;;11.38;6.95;;;19.60;99.90;;;;;;5011133;28;20041;-69
2023/09/03 10:00:01;;;;;;;10.30;7.50;;;19.60;99.90;;;;;;5002336;28;20029;-65
2023/09/03 10:02:26;;;;;;;10.65;8.05;;;19.60;99.90;;;;;;4999109;28;20716;-66
2023/09/03 10:04:53;;;;;;;10.65;7.38;;;19.70;99.90;;;;;;4997082;28;20033;-66
2023/09/03 10:07:19;;;;;;;10.80;5.93;;;19.70;99.90;;;;;;4995553;28;20958;-69
2023/09/03 10:09:45;;;;;;;7.57;5.70;;;19.70;99.90;;;;;;5008418;28;20463;-69
2023/09/03 10:12:12;;;;;;;9.65;6.72;;;19.70;99.90;;;;;;5004903;28;20069;-69
2023/09/03 10:14:38;;;;;;;7.72;5.90;;;19.80;99.90;;;;;;5014588;28;20037;-67
2023/09/03 10:17:08;;;;;;;7.82;6.13;;;19.80;99.90;;;;;;5004199;28;20030;-66
2023/09/03 10:19:42;;;;;;;7.03;6.07;;;19.80;99.90;;;;;;4986941;28;20121;-67
2023/09/03 10:22:13;;;;;;;16.55;9.98;;;19.80;99.90;;;;;;5013870;28;20388;-66
2023/09/03 10:24:39;;;;;;;9.75;6.75;;;19.90;99.90;;;;;;5005215;28;20103;-67
2023/09/03 10:27:09;;;;;;;7.75;6.63;;;19.90;99.90;;;;;;5009334;28;20117;-68
2023/09/03 10:29:35;;;;;;;7.60;6.07;;;20.00;99.90;;;;;;5013486;28;20038;-68
2023/09/03 10:32:03;;;;;;;7.80;5.47;;;20.00;99.90;;;;;;5013030;28;20049;-68
2023/09/03 10:34:30;;;;;;;6.85;5.70;;;20.00;99.90;;;;;;4996110;28;20049;-68
2023/09/03 10:37:12;;;;;;;8.05;5.47;;;20.00;99.90;;;;;;5010802;28;20582;-67
2023/09/03 10:39:43;;;;;;;7.40;4.75;;;20.00;99.90;;;;;;5013183;28;20113;-68
2023/09/03 10:42:14;;;;;;;6.30;4.18;;;19.90;99.90;;;;;;4989873;28;20088;-67
2023/09/03 10:44:57;;;;;;;7.70;5.50;;;20.00;99.90;;;;;;5010458;28;20194;-68
2023/09/03 10:47:23;;;;;;;6.13;4.43;;;20.00;99.90;;;;;;4994271;28;20050;-68
2023/09/03 10:49:51;;;;;;;7.97;6.53;;;20.10;99.90;;;;;;5007077;28;20043;-68
2023/09/03 10:52:30;;;;;;;7.70;5.57;;;20.20;99.90;;;;;;5003362;28;20064;-67
2023/09/03 10:55:12;;;;;;;8.40;5.80;;;20.30;99.90;;;;;;4992368;28;20046;-68
2023/09/03 10:57:38;;;;;;;7.72;5.45;;;20.40;99.90;;;;;;5009272;28;20037;-67
2023/09/03 11:00:06;;;;;;;5.82;4.47;;;20.40;99.90;;;;;;5007169;28;20116;-68
2023/09/03 11:02:33;;;;;;;6.82;4.85;;;20.50;99.90;;;;;;5008085;28;20065;-68
2023/09/03 11:05:21;;;;;;;6.90;5.00;;;20.50;99.90;;;;;;5001645;28;20030;-67
2023/09/03 11:08:31;;;;;;;7.45;5.40;;;20.60;99.90;;;;;;4984095;28;20037;-65
2023/09/03 11:10:58;;;;;;;7.13;5.13;;;20.60;99.90;;;;;;5002180;28;20455;-67
2023/09/03 11:13:23;;;;;;;8.15;5.60;;;20.60;99.90;;;;;;4995219;28;20068;-65
2023/09/03 11:15:55;;;;;;;7.38;5.80;;;20.70;99.90;;;;;;4999234;28;20034;-65
2023/09/03 11:18:22;;;;;;;9.77;5.82;;;20.80;99.90;;;;;;5004994;28;20038;-65
2023/09/03 11:20:49;;;;;;;6.30;4.88;;;20.90;99.90;;;;;;5005587;28;20034;-65
2023/09/03 11:23:16;;;;;;;6.65;4.50;;;21.00;99.90;;;;;;4992816;28;20164;-65
2023/09/03 11:25:42;;;;;;;7.20;4.45;;;21.10;99.90;;;;;;5002429;28;20528;-65
2023/09/03 11:28:11;;;;;;;5.60;3.92;;;21.10;99.90;;;;;;5011668;28;20185;-65
2023/09/03 11:30:46;;;;;;;6.30;4.32;;;21.10;99.90;;;;;;5012254;28;20073;-66
2023/09/03 11:33:23;;;;;;;6.57;4.20;;;21.30;99.90;;;;;;4996612;28;20030;-65
2023/09/03 11:35:48;;;;;;;5.90;4.07;;;21.30;99.90;;;;;;5004714;28;20134;-65
2023/09/03 11:38:14;;;;;;;5.90;3.90;;;21.40;99.90;;;;;;5002821;28;20560;-65
2023/09/03 11:40:40;;;;;;;4.68;3.45;;;21.50;99.90;;;;;;4997432;28;20034;-64
2023/09/03 11:43:09;;;;;;;5.15;3.45;;;21.50;99.90;;;;;;4992282;28;20038;-64
2023/09/03 11:45:35;;;;;;;6.47;2.97;;;21.60;99.90;;;;;;5000921;28;20038;-65
2023/09/03 11:48:06;;;;;;;5.28;2.97;;;21.70;99.90;;;;;;5010822;28;20112;-65
2023/09/03 11:50:32;;;;;;;6.53;2.27;;;21.70;99.90;;;;;;5007282;28;20038;-65
2023/09/03 11:52:58;;;;;;;3.55;2.20;;;21.70;99.90;;;;;;5004210;28;20037;-65
2023/09/03 11:55:28;;;;;;;3.72;2.40;;;21.70;99.90;;;;;;4997949;28;20046;-65
2023/09/03 11:57:57;;;;;;;3.30;2.55;;;21.70;99.90;;;;;;5001581;28;20467;-65
2023/09/03 12:00:23;;;;;;;4.43;2.60;;;21.70;99.90;;;;;;5002869;28;20717;-64
2023/09/03 12:02:49;;;;;;;7.47;3.05;;;21.70;99.90;;;;;;5012353;28;20034;-65
2023/09/03 12:05:15;;;;;;;4.38;2.63;;;21.70;99.90;;;;;;4997266;28;20037;-65
2023/09/03 12:07:41;;;;;;;4.10;2.65;;;21.70;99.90;;;;;;4991400;28;20057;-64
2023/09/03 12:10:08;;;;;;;3.42;2.90;;;21.80;99.90;;;;;;5003963;28;20054;-64
2023/09/03 12:12:34;;;;;;;5.40;3.20;;;21.90;99.90;;;;;;4999861;28;20041;-65
2023/09/03 12:14:59;;;;;;;3.70;2.70;;;21.90;99.90;;;;;;5000986;28;20034;-65
2023/09/03 12:17:26;;;;;;;3.83;2.70;;;21.90;99.90;;;;;;5009469;28;20117;-65
2023/09/03 12:19:52;;;;;;;4.30;2.88;;;22.00;99.90;;;;;;5010775;28;20030;-67
2023/09/03 12:22:19;;;;;;;6.38;3.15;;;22.00;99.90;;;;;;5006850;28;20034;-67
2023/09/03 12:24:48;;;;;;;4.70;3.25;;;22.10;99.90;;;;;;5006125;28;20128;-67
2023/09/03 12:27:14;;;;;;;4.55;3.00;;;22.10;99.90;;;;;;5010432;28;20504;-65
2023/09/03 12:29:40;;;;;;;5.72;3.17;;;22.20;99.90;;;;;;5010895;28;20033;-65
2023/09/03 12:32:07;;;;;;;4.70;2.88;;;22.20;99.90;;;;;;5000504;28;20048;-67
2023/09/03 12:34:34;;;;;;;3.72;3.00;;;22.30;99.90;;;;;;5010716;28;20025;-67
2023/09/03 12:37:00;;;;;;;4.65;3.30;;;22.20;99.90;;;;;;4994616;28;20676;-67
2023/09/03 12:39:30;;;;;;;4.18;2.97;;;22.20;99.90;;;;;;5002941;28;20034;-67
2023/09/03 12:41:56;;;;;;;6.00;3.33;;;22.30;99.90;;;;;;5009191;28;20033;-67
2023/09/03 12:44:22;;;;;;;5.05;3.72;;;22.40;99.90;;;;;;5011071;28;20096;-67
2023/09/03 12:46:48;;;;;;;4.30;2.97;;;22.50;99.90;;;;;;5008206;28;20408;-67
2023/09/03 12:49:13;;;;;;;3.63;2.80;;;22.60;99.90;;;;;;5007689;28;20046;-66
2023/09/03 12:51:41;;;;;;;4.15;2.70;;;22.70;99.90;;;;;;5010952;28;20042;-67
2023/09/03 12:54:06;;;;;;;3.60;2.40;;;22.70;99.90;;;;;;4996468;28;20088;-67